Los Posos, Valles Caldera, New Mexico Weather observations

Data are for 10 minute period ending at time listed.
 Day   Time   Solar   Ave.   Ave.  Ave.  Vector  Max.   Baro.   Total    
  of    of     Rad.   Air    Rel.  Wind   Wind   Wind  Press.  Precip.   
Year   Day            Temp.  Hum.  Speed  Dir.   Gust                    
2017   (MST)  Kw/m2    F      %     mph   deg.    mph    mb.     in.     
-------------------------------------------------------------------------
 119   23:30   0.00   15.6    93    0.0     0     0.0   99999.0    0.00 
 119   23:40   0.00   16.1    93    0.0     0     0.0   99999.0    0.00 
 119   23:50   0.00   15.8    93    0.0     0     0.0   99999.0    0.00 
 120    0:00   0.00   16.0    93    0.0     0     0.0   99999.0    0.00 
 120    0:10   0.00   16.1    93    0.0     0     0.0   99999.0    0.00 
 120    0:20   0.00   16.9    94    0.0     0     0.0   99999.0    0.00 
 120    0:30   0.00   17.4    93    0.0     0     0.0   99999.0    0.00 
 120    0:40   0.00   17.1    92    0.0     0     0.0   99999.0    0.00 
 120    0:50   0.00   16.8    93    0.0     0     0.0   99999.0    0.00 
 120    1:00   0.00   17.4    93    0.0     0     0.0   99999.0    0.00 
 120    1:10   0.00   18.2    93    0.0     0     0.0   99999.0    0.00 
 120    1:20   0.00   18.9    94    0.0     0     0.0   99999.0    0.00 
 120    1:30   0.00   19.4    93    0.0     0     0.0   99999.0    0.00 
 120    1:40   0.00   20.0    93    0.4    70     2.4   99999.0    0.00 
 120    1:50   0.00   20.8    94    0.5    42     1.8   99999.0    0.00 
 120    2:00   0.00   21.5    94    2.1     6     4.8   99999.0    0.00 
 120    2:10   0.00   22.3    94    2.3    13     4.2   99999.0    0.00 
 120    2:20   0.00   22.6    94    2.8    22     4.8   99999.0    0.00 
 120    2:30   0.00   22.5    94    3.4    39     4.8   99999.0    0.00 
 120    2:40   0.00   22.0    94    3.3    29     4.2   99999.0    0.00 
 120    2:50   0.00   21.3    93    2.5     2     4.2   99999.0    0.00 
 120    3:00   0.00   21.0    94    3.8    18     5.4   99999.0    0.00 
 120    3:10   0.00   20.3    94    4.4    32     5.4   99999.0    0.00 
 120    3:20   0.00   19.8    94    3.9    29     4.8   99999.0    0.00 
 120    3:30   0.00   18.7    93    3.1     8     4.8   99999.0    0.00 
 120    3:40   0.00   17.7    93    4.1    19     6.6   99999.0    0.00 
 120    3:50   0.00   18.6    94    4.7    17     7.2   99999.0    0.00 
 120    4:00   0.00   18.0    92    3.9     3     5.4   99999.0    0.00 
 120    4:10   0.00   17.1    92    4.1     8     7.8   99999.0    0.00 
 120    4:20   0.00   17.9    93    3.5     9     5.4   99999.0    0.00 
 120    4:30   0.00   17.2    92    3.1   350     5.4   99999.0    0.00 
 120    4:40   0.00   17.0    92    3.7     6     6.6   99999.0    0.00 
 120    4:50   0.00   17.9    93    6.9   354     9.6   99999.0    0.00 
 120    5:00   0.00   19.4    93    7.0     0     9.6   99999.0    0.00 
 120    5:10   0.00   20.5    93    6.9     6    13.7   99999.0    0.00 
 120    5:20   0.00   21.0    91    7.8     4    13.7   99999.0    0.00 
 120    5:30   0.01   21.0    91    7.9     1    13.7   99999.0    0.00 
 120    5:40   0.02   21.1    90    7.2   345    11.3   99999.0    0.00 
 120    5:50   0.15   23.0    88    7.9   339    12.5   99999.0    0.00 
 120    6:00   0.20   25.2    81    6.7   332    10.8   99999.0    0.00 
 120    6:10   0.24   26.7    75    7.2   328    11.3   99999.0    0.00 
 120    6:20   0.28   28.1    72    7.2   333    13.1   99999.0    0.00 
 120    6:30   0.32   28.9    68    7.8   330    13.1   99999.0    0.00 
 120    6:40   0.35   28.6    69    9.3   332    14.3   99999.0    0.00 
 120    6:50   0.39   28.5    68   10.5   339    15.5   99999.0    0.00 
 120    7:00   0.42   30.5    63   10.6   342    14.9   99999.0    0.00 
 120    7:10   0.45   31.1    61    9.2   330    13.1   99999.0    0.00 
 120    7:20   0.47   31.0    61   10.0   325    15.5   99999.0    0.00 
 120    7:30   0.49   31.8    59   11.1   332    18.5   99999.0    0.00 
 120    7:40   0.50   32.4    58    9.0   329    14.3   99999.0    0.00 
 120    7:50   0.52   34.7    53    8.5   341    12.5   99999.0    0.00 
 120    8:00   0.54   37.1    47    6.4   342    10.2   99999.0    0.00 
 120    8:10   0.55   39.2    42    5.2   339     8.4   99999.0    0.00 
 120    8:20   0.57   38.3    44    6.1   340     9.6   99999.0    0.00 
 120    8:30   0.58   41.1    39    6.1   350    10.2   99999.0    0.00 
 120    8:40   0.60   42.5    37    5.7   345    10.2   99999.0    0.00 
 120    8:50   0.62   41.2    37    7.0   333    11.9   99999.0    0.00 
 120    9:00   0.64   40.5    38    8.3   332    13.7   99999.0    0.00 
 120    9:10   0.66   38.5    39   10.2   329    16.1   99999.0    0.00 
 120    9:20   0.68   38.3    37   10.5   325    17.9   99999.0    0.00 
 120    9:30   0.70   37.6    38    9.6   307    16.7   99999.0    0.00 
 120    9:40   0.73   37.3    37    9.8   315    15.5   99999.0    0.00 
 120    9:50   0.76   39.3    34   10.7   329    16.7   99999.0    0.00 
 120   10:00   0.79   40.0    34    9.4   327    14.9   99999.0    0.00 
 120   10:10   0.82   40.1    34    9.0   320    14.9   99999.0    0.00 
 120   10:20   0.85   39.8    32   11.6   322    22.7   99999.0    0.01 
 120   10:30   0.87   41.0    32    9.7   324    16.1   99999.0    0.00 
 120   10:40   0.90   41.1    32    8.1   314    14.3   99999.0    0.00 
 120   10:50   0.93   40.7    33    7.3   307    14.3   99999.0    0.00 
 120   11:00   0.98   40.3    33    8.8   312    17.3   99999.0    0.00 
 120   11:10   1.00   39.3    32    9.2   304    17.3   99999.0    0.00 
 120   11:20   1.02   39.1    31   10.2   307    14.3   99999.0    0.01 
 120   11:30   1.02   40.3    31    9.8   320    22.1   99999.0    0.00 
 120   11:40   1.02   41.1    31    9.1   321    17.9   99999.0    0.00 
 120   11:50   1.03   42.0    31   11.5   334    20.9   99999.0    0.00 
 120   12:00   1.03   42.1    31   10.4   319    16.1   99999.0    0.01 
 120   12:10   1.03   41.0    32   10.8   315    18.5   99999.0    0.00 
 120   12:20   1.03   41.1    33    9.2   315    16.1   99999.0    0.00 
 120   12:30   1.03   41.9    30   11.4   316    20.9   99999.0    0.00 
 120   12:40   1.03   42.7    28   14.0   336    20.9   99999.0    0.01 
 120   12:50   1.02   43.5    28   12.4   329    21.5   99999.0    0.00 
 120   13:00   1.01   43.7    27    9.7   318    19.1   99999.0    0.00 
 120   13:10   1.00   44.0    30   11.9   320    18.5   99999.0    0.00 
 120   13:20   0.99   42.9    34    7.5   291    17.9   99999.0    0.00 
 120   13:30   0.97   43.0    34    8.4   285    15.5   99999.0    0.00 
 120   13:40   0.96   43.6    32    7.8   294    18.5   99999.0    0.00 
 120   13:50   0.95   43.1    31    8.5   296    18.5   99999.0    0.00 
 120   14:00   0.93   44.2    33    8.4   310    14.3   99999.0    0.00 
 120   14:10   0.91   43.5    33    8.5   283    16.1   99999.0    0.00 
 120   14:20   0.89   44.3    32    8.0   304    16.7   99999.0    0.01 
 120   14:30   0.86   44.8    28   10.2   317    18.5   99999.0    0.00 
 120   14:40   0.84   45.3    29   10.4   305    16.7   99999.0    0.00 
 120   14:50   0.81   45.5    29    8.4   304    17.3   99999.0    0.00 
 120   15:00   0.79   46.2    28    8.9   300    16.1   99999.0    0.00 
 120   15:10   0.76   45.8    28   10.0   303    23.9   99999.0    0.00 
 120   15:20   0.73   45.9    28   11.7   307    17.3   99999.0    0.00 
 120   15:30   0.70   45.3    29   11.6   297    18.5   99999.0    0.00 
 120   15:40   0.67   45.2    29   11.2   288    20.3   99999.0    0.00 
 120   15:50   0.63   45.4    28   12.1   299    21.5   99999.0    0.00 
 120   16:00   0.60   45.2    27   11.7   303    19.7   99999.0    0.00 
 120   16:10   0.56   46.6    28   11.4   321    21.5   99999.0    0.00 
 120   16:20   0.53   46.9    29   10.4   312    18.5   99999.0    0.00 
 120   16:30   0.49   46.2    29   10.7   290    19.1   99999.0    0.00 
 120   16:40   0.46   46.0    29    9.5   303    17.9   99999.0    0.00 
 120   16:50   0.42   46.0    30    8.9   293    16.7   99999.0    0.00 
 120   17:00   0.39   45.0    30   11.5   298    20.9   99999.0    0.00 
 120   17:10   0.35   45.1    30   10.2   298    19.1   99999.0    0.00 
 120   17:20   0.30   44.9    30   11.0   288    20.3   99999.0    0.00 
 120   17:30   0.21   43.6    31    9.8   286    17.3   99999.0    0.00 
 120   17:40   0.13   42.9    32    8.9   298    19.7   99999.0    0.00 
 120   17:50   0.08   41.7    32    9.6   294    19.1   99999.0    0.00 
 120   18:00   0.07   41.3    33    9.1   302    17.9   99999.0    0.00 
 120   18:10   0.07   41.0    34    7.0   296    12.5   99999.0    0.00 
 120   18:20   0.04   40.8    34    8.5   291    14.3   99999.0    0.00 
 120   18:30   0.02   40.4    34   10.3   302    19.7   99999.0    0.00 
 120   18:40   0.02   39.6    34   11.4   299    20.9   99999.0    0.00 
 120   18:50   0.01   39.2    35   11.1   300    19.7   99999.0    0.00 
 120   19:00   0.00   38.7    36    9.6   300    16.7   99999.0    0.00 
 120   19:10   0.00   38.4    36    8.9   304    17.3   99999.0    0.00 
 120   19:20   0.00   38.0    37    8.8   304    17.3   99999.0    0.00 
 120   19:30   0.00   37.8    38    9.0   316    15.5   99999.0    0.00 
 120   19:40   0.00   37.5    38   11.1   316    17.9   99999.0    0.00 
 120   19:50   0.00   37.4    38   10.2   314    20.3   99999.0    0.00 
 120   20:00   0.00   37.1    38   10.3   315    19.1   99999.0    0.00 
 120   20:10   0.00   36.9    38    9.4   314    16.1   99999.0    0.00 
 120   20:20   0.00   36.6    39    9.0   315    17.3   99999.0    0.00 
 120   20:30   0.00   36.4    39    8.2   320    14.3   99999.0    0.00 
 120   20:40   0.00   36.3    38    8.3   316    16.7   99999.0    0.00 
 120   20:50   0.00   36.2    39    8.7   305    16.1   99999.0    0.00 
 120   21:00   0.00   35.9    40    7.9   316    16.7   99999.0    0.00 
 120   21:10   0.00   35.3    41    7.4   322    16.1   99999.0    0.00 
 120   21:20   0.00   35.2    41    9.8   320    17.9   99999.0    0.00 
 120   21:30   0.00   35.8    39   10.2   314    19.1   99999.0    0.00 
 120   21:40   0.00   35.7    38    9.8   312    19.7   99999.0    0.00 
 120   21:50   0.00   35.7    38   11.1   317    19.1   99999.0    0.00 
 120   22:00   0.00   35.8    37   10.4   318    17.9   99999.0    0.00 
 120   22:10   0.00   36.2    35   12.0   312    22.7   99999.0    0.00 
 120   22:20   0.00   36.5    34   11.9   319    19.7   99999.0    0.00 
 120   22:30   0.00   36.4    34   11.4   326    18.5   99999.0    0.00 
 120   22:40   0.00   36.3    34   12.2   327    20.3   99999.0    0.00 
 120   22:50   0.00   36.5    34   10.6   321    22.1   99999.0    0.00 
 120   23:00   0.00   36.3    35    9.4   336    15.5   99999.0    0.00 
 120   23:10   0.00   36.1    35   11.3   328    22.7   99999.0    0.00 
 120   23:20   0.00   36.7    34   12.9   317    21.5   99999.0    0.00 

Return to Los Posos, Valles Caldera graphs page.


Western Regional Climate Center,wrcc@dri.edu